Time;durP1;ratioP1;P1;durP2;ratioP2;P2;SDS_P1;SDS_P2;PMS_P1;PMS_P2;Temp;Humidity;BMP_temperature;BMP_pressure;BME280_temperature;BME280_humidity;BME280_pressure;Samples;Min_cycle;Max_cycle;Signal;HPM_P1;HPM_P2
2022/10/13 00:00:16;;;;;;;11.13;4.73;;;9.10;85.20;;;;;;5034600;28;20600;-89
2022/10/13 00:02:42;;;;;;;19.73;6.13;;;9.10;85.30;;;;;;5034550;28;20615;-90
2022/10/13 00:05:07;;;;;;;17.30;7.17;;;9.10;85.20;;;;;;5034645;28;20254;-90
2022/10/13 00:07:33;;;;;;;12.13;6.67;;;9.00;85.20;;;;;;5033182;28;20258;-88
2022/10/13 00:09:59;;;;;;;17.43;6.67;;;9.10;85.40;;;;;;5033277;28;20184;-90
2022/10/13 00:12:24;;;;;;;11.23;4.57;;;9.10;85.30;;;;;;5034038;28;20181;-89
2022/10/13 00:14:50;;;;;;;12.67;4.70;;;9.00;85.50;;;;;;5033415;28;20246;-91
2022/10/13 00:17:15;;;;;;;13.70;4.80;;;9.00;85.60;;;;;;5033204;28;20631;-90
2022/10/13 00:19:41;;;;;;;14.33;5.20;;;9.00;85.80;;;;;;5033152;28;20184;-90
2022/10/13 00:22:06;;;;;;;12.80;4.50;;;8.90;85.80;;;;;;5034960;28;20176;-90
2022/10/13 00:24:32;;;;;;;15.57;4.50;;;8.90;85.80;;;;;;5032997;28;20731;-89
2022/10/13 00:26:57;;;;;;;11.10;3.80;;;8.90;85.80;;;;;;5032862;28;20227;-89
2022/10/13 00:29:23;;;;;;;12.50;4.30;;;8.90;85.80;;;;;;5032811;28;20259;-90
2022/10/13 00:31:48;;;;;;;15.67;4.47;;;9.00;85.70;;;;;;5032840;28;20230;-89
2022/10/13 00:34:14;;;;;;;15.00;4.57;;;9.00;85.60;;;;;;5033777;28;20342;-90
2022/10/13 00:36:39;;;;;;;13.93;4.57;;;9.00;85.40;;;;;;5032777;28;20275;-90
2022/10/13 00:39:05;;;;;;;18.03;5.33;;;8.90;85.30;;;;;;5032769;28;20184;-89
2022/10/13 00:41:31;;;;;;;12.63;3.53;;;9.00;85.00;;;;;;5032625;28;20279;-89
2022/10/13 00:44:25;;;;;;;15.53;3.90;;;8.80;85.00;;;;;;5031738;28;20196;-89
2022/10/13 00:46:50;;;;;;;10.77;3.80;;;8.70;85.00;;;;;;5032476;28;20211;-89
2022/10/13 00:49:16;;;;;;;11.90;4.03;;;8.80;85.00;;;;;;5032580;28;20173;-90
2022/10/13 00:51:45;;;;;;;15.57;3.73;;;8.70;85.00;;;;;;5032500;28;20176;-90
2022/10/13 00:54:16;;;;;;;8.27;3.43;;;8.70;85.00;;;;;;5032718;28;20212;-90
2022/10/13 00:56:42;;;;;;;8.70;3.40;;;8.60;84.90;;;;;;5033933;28;20215;-89
2022/10/13 00:59:13;;;;;;;11.07;4.13;;;8.60;85.00;;;;;;5032261;28;20187;-89
2022/10/13 01:01:39;;;;;;;9.23;3.70;;;8.50;84.80;;;;;;5033626;28;20219;-89
2022/10/13 01:04:04;;;;;;;10.13;4.13;;;8.50;84.90;;;;;;5033402;28;20204;-90
2022/10/13 01:06:30;;;;;;;10.93;3.90;;;8.40;85.00;;;;;;5032458;28;20240;-90
2022/10/13 01:08:56;;;;;;;9.83;4.00;;;8.30;85.10;;;;;;5032290;28;20187;-90
2022/10/13 01:11:46;;;;;;;17.80;4.20;;;8.30;85.20;;;;;;5032430;28;20631;-90
2022/10/13 01:14:29;;;;;;;11.00;4.67;;;8.30;85.00;;;;;;5005183;28;20209;-90
2022/10/13 01:17:00;;;;;;;12.63;4.60;;;8.30;85.00;;;;;;5032735;28;20535;-90
2022/10/13 01:20:04;;;;;;;11.23;3.97;;;8.20;85.20;;;;;;5032111;28;20185;-89
2022/10/13 01:23:08;;;;;;;11.40;4.10;;;8.30;85.10;;;;;;5032108;28;20234;-89
2022/10/13 01:25:52;;;;;;;12.93;4.63;;;8.20;85.30;;;;;;5032487;28;20187;-90
2022/10/13 01:28:26;;;;;;;10.70;5.83;;;8.20;85.60;;;;;;5032014;28;20291;-90
2022/10/13 01:30:59;;;;;;;12.27;4.47;;;8.10;86.00;;;;;;5032975;28;20639;-90
2022/10/13 01:34:08;;;;;;;13.47;4.53;;;8.20;86.30;;;;;;5031761;28;20184;-90
2022/10/13 01:37:02;;;;;;;16.80;5.83;;;8.20;86.40;;;;;;5031913;28;20226;-89
2022/10/13 01:39:39;;;;;;;10.33;4.47;;;8.10;86.60;;;;;;5031920;28;20247;-90
2022/10/13 01:42:13;;;;;;;17.47;5.17;;;8.00;86.50;;;;;;5031874;28;20650;-90
2022/10/13 01:44:44;;;;;;;14.03;4.47;;;7.90;86.90;;;;;;5031883;28;20203;-89
2022/10/13 01:47:13;;;;;;;13.87;5.00;;;7.90;87.00;;;;;;5033062;28;20246;-90
2022/10/13 01:49:39;;;;;;;12.50;4.90;;;7.80;87.00;;;;;;5033059;28;20219;-90
2022/10/13 01:52:08;;;;;;;17.80;5.37;;;7.80;87.30;;;;;;5032019;28;20202;-89
2022/10/13 01:54:34;;;;;;;11.20;4.83;;;7.80;87.60;;;;;;5032969;28;20235;-90
2022/10/13 01:57:00;;;;;;;12.73;5.20;;;7.90;87.60;;;;;;5036082;28;20271;-90
2022/10/13 01:59:31;;;;;;;10.93;5.13;;;7.90;87.50;;;;;;5036263;28;20339;-90
2022/10/13 02:02:17;;;;;;;17.50;4.67;;;7.90;87.60;;;;;;5036456;28;20181;-90
2022/10/13 02:04:54;;;;;;;17.87;4.67;;;7.90;87.60;;;;;;5035592;28;20201;-90
2022/10/13 02:07:35;;;;;;;13.50;4.93;;;8.00;87.60;;;;;;5035849;28;20716;-90
2022/10/13 02:10:09;;;;;;;20.67;4.60;;;8.00;87.40;;;;;;5035512;28;20164;-89
2022/10/13 02:12:53;;;;;;;12.30;4.70;;;8.00;87.30;;;;;;5035497;28;20646;-89
2022/10/13 02:15:25;;;;;;;11.27;5.10;;;7.90;87.30;;;;;;5035302;28;20286;-90
2022/10/13 02:17:51;;;;;;;13.73;5.27;;;7.90;87.50;;;;;;5035838;28;20173;-90
2022/10/13 02:20:19;;;;;;;11.90;4.87;;;7.90;87.50;;;;;;5035342;28;20180;-90
2022/10/13 02:22:48;;;;;;;16.03;5.33;;;8.00;87.70;;;;;;5035271;28;20642;-89
2022/10/13 02:25:14;;;;;;;12.07;5.03;;;8.00;87.60;;;;;;5035142;28;20247;-89
2022/10/13 02:27:40;;;;;;;13.93;5.93;;;8.10;87.60;;;;;;5035139;28;20208;-90
2022/10/13 02:30:06;;;;;;;18.93;7.60;;;8.20;87.70;;;;;;5035492;28;20181;-89
2022/10/13 02:32:31;;;;;;;17.57;7.47;;;8.20;87.60;;;;;;5036274;28;20252;-90
2022/10/13 02:34:57;;;;;;;22.53;9.90;;;8.30;87.50;;;;;;5035342;28;20248;-89
2022/10/13 02:37:24;;;;;;;22.10;9.27;;;8.30;87.50;;;;;;5035039;28;20203;-90
2022/10/13 02:39:50;;;;;;;12.00;5.43;;;8.30;87.60;;;;;;5035465;28;20179;-89
2022/10/13 02:42:16;;;;;;;14.03;7.43;;;8.30;87.60;;;;;;5034936;28;20181;-89
2022/10/13 02:44:41;;;;;;;30.70;13.13;;;8.30;87.60;;;;;;5034778;28;20196;-89
2022/10/13 02:47:07;;;;;;;22.67;9.83;;;8.30;87.60;;;;;;5034831;28;20250;-90
2022/10/13 02:49:32;;;;;;;24.60;10.33;;;8.30;87.70;;;;;;5034869;28;20278;-90
2022/10/13 02:51:58;;;;;;;29.43;11.70;;;8.30;88.00;;;;;;5034704;28;20176;-90
2022/10/13 02:54:23;;;;;;;71.80;28.70;;;8.30;88.20;;;;;;5034560;28;20200;-89
2022/10/13 02:56:49;;;;;;;15.07;6.57;;;8.30;88.30;;;;;;5034650;28;20177;-90
2022/10/13 02:59:14;;;;;;;15.17;6.40;;;8.40;88.30;;;;;;5035494;28;20196;-89
2022/10/13 03:01:40;;;;;;;49.17;23.83;;;8.40;88.20;;;;;;5034571;28;20187;-90
2022/10/13 03:04:07;;;;;;;34.27;17.93;;;8.40;88.20;;;;;;5034435;28;20197;-90
2022/10/13 03:06:33;;;;;;;20.53;10.10;;;8.30;88.20;;;;;;5033500;28;20231;-90
2022/10/13 03:08:58;;;;;;;42.00;20.57;;;8.30;88.30;;;;;;5034366;28;20215;-90
2022/10/13 03:11:24;;;;;;;40.80;22.17;;;8.30;88.40;;;;;;5034345;28;20188;-89
2022/10/13 03:13:50;;;;;;;26.33;13.53;;;8.30;88.50;;;;;;5034307;28;20730;-90
2022/10/13 03:16:15;;;;;;;28.33;11.07;;;8.30;88.30;;;;;;5035003;28;20223;-90
2022/10/13 03:18:41;;;;;;;20.53;7.90;;;8.40;88.40;;;;;;5035764;28;20255;-90
2022/10/13 03:21:07;;;;;;;12.00;6.07;;;8.40;88.30;;;;;;5034766;28;20224;-90
2022/10/13 03:23:32;;;;;;;11.17;6.30;;;8.40;88.40;;;;;;5034375;28;20558;-89
2022/10/13 03:25:59;;;;;;;10.87;5.70;;;8.40;88.30;;;;;;5034886;28;20187;-90
2022/10/13 03:28:25;;;;;;;12.03;5.50;;;8.30;88.20;;;;;;5034009;28;20188;-90
2022/10/13 03:30:59;;;;;;;14.40;5.57;;;8.40;88.20;;;;;;5033970;28;20169;-90
2022/10/13 03:33:25;;;;;;;17.93;6.00;;;8.30;88.20;;;;;;5033856;28;20198;-90
2022/10/13 03:35:50;;;;;;;19.90;5.80;;;8.30;88.30;;;;;;5034062;28;20165;-90
2022/10/13 03:38:16;;;;;;;17.10;6.23;;;8.30;88.50;;;;;;5033931;28;20647;-90
2022/10/13 03:40:42;;;;;;;14.13;5.40;;;8.30;88.60;;;;;;5034302;28;20187;-90
2022/10/13 03:43:08;;;;;;;14.60;5.67;;;8.30;88.70;;;;;;5033862;28;20553;-89
2022/10/13 03:45:33;;;;;;;11.10;5.37;;;8.40;88.70;;;;;;5033961;28;20196;-90
2022/10/13 03:47:59;;;;;;;11.97;5.13;;;8.30;88.70;;;;;;5033651;28;20204;-90
2022/10/13 03:50:24;;;;;;;12.10;5.30;;;8.30;88.70;;;;;;5033730;28;20180;-90
2022/10/13 03:52:50;;;;;;;14.90;5.27;;;8.30;88.60;;;;;;5034123;28;20679;-90
2022/10/13 03:55:16;;;;;;;16.23;5.70;;;8.30;88.70;;;;;;5033527;28;20231;-90
2022/10/13 03:57:41;;;;;;;12.37;6.30;;;8.40;88.70;;;;;;5033512;28;20172;-90
2022/10/13 04:00:09;;;;;;;13.90;6.23;;;8.40;88.50;;;;;;5033585;28;20577;-89
2022/10/13 04:02:35;;;;;;;12.60;5.87;;;8.40;88.60;;;;;;5033416;28;20267;-90
2022/10/13 04:05:00;;;;;;;17.90;6.17;;;8.30;88.60;;;;;;5034605;28;20228;-90
2022/10/13 04:07:26;;;;;;;12.37;6.37;;;8.30;88.80;;;;;;5033298;28;20201;-90
2022/10/13 04:09:51;;;;;;;15.80;6.27;;;8.30;88.90;;;;;;5033327;28;20212;-89
2022/10/13 04:12:18;;;;;;;14.30;6.40;;;8.30;89.00;;;;;;5033314;28;20177;-90
2022/10/13 04:14:43;;;;;;;18.03;6.17;;;8.30;89.00;;;;;;5033087;28;20188;-90
2022/10/13 04:17:09;;;;;;;11.53;6.57;;;8.30;89.00;;;;;;5033407;28;20647;-90
2022/10/13 04:19:34;;;;;;;15.77;6.17;;;8.30;89.00;;;;;;5032947;28;20181;-90
2022/10/13 04:22:00;;;;;;;21.10;6.53;;;8.30;88.90;;;;;;5033334;28;20227;-89
2022/10/13 04:24:25;;;;;;;16.70;6.87;;;8.30;89.00;;;;;;5032850;28;20204;-89
2022/10/13 04:26:51;;;;;;;13.20;6.77;;;8.30;89.00;;;;;;5032825;28;20228;-89
2022/10/13 04:29:16;;;;;;;15.83;6.50;;;8.30;89.00;;;;;;5032888;28;20208;-90
2022/10/13 04:31:42;;;;;;;15.67;6.40;;;8.30;89.00;;;;;;5032905;28;20230;-90
2022/10/13 04:34:08;;;;;;;13.70;8.17;;;8.30;88.90;;;;;;5033424;28;20247;-90
2022/10/13 04:36:34;;;;;;;10.90;7.03;;;8.30;89.10;;;;;;5032770;28;20216;-89
2022/10/13 04:38:59;;;;;;;14.87;6.73;;;8.30;89.10;;;;;;5032766;28;20184;-89
2022/10/13 04:41:25;;;;;;;16.80;7.90;;;8.30;89.20;;;;;;5032600;28;20591;-90
2022/10/13 04:43:52;;;;;;;11.93;7.20;;;8.30;89.10;;;;;;5034064;28;20200;-90
2022/10/13 04:46:24;;;;;;;14.90;8.20;;;8.30;89.20;;;;;;5032535;28;20645;-90
2022/10/13 04:48:49;;;;;;;19.73;8.23;;;8.30;89.20;;;;;;5032590;28;20205;-90
2022/10/13 04:51:18;;;;;;;16.47;8.10;;;8.30;89.40;;;;;;5032578;28;20213;-90
2022/10/13 04:53:44;;;;;;;16.40;7.70;;;8.30;89.40;;;;;;5032395;28;20239;-90
2022/10/13 04:56:15;;;;;;;20.30;8.73;;;8.30;89.40;;;;;;5033476;28;20204;-91
2022/10/13 04:58:42;;;;;;;15.50;8.30;;;8.20;89.50;;;;;;5033875;28;20650;-90
2022/10/13 05:01:13;;;;;;;14.93;8.17;;;8.30;89.50;;;;;;5032319;28;20187;-90
2022/10/13 05:03:38;;;;;;;20.03;9.17;;;8.20;89.60;;;;;;5032332;28;20201;-90
2022/10/13 05:06:04;;;;;;;18.90;8.93;;;8.30;89.60;;;;;;5032203;28;20226;-90
2022/10/13 05:08:31;;;;;;;21.27;10.03;;;8.20;89.60;;;;;;5032737;28;20176;-90
2022/10/13 05:11:01;;;;;;;34.07;9.93;;;8.20;89.70;;;;;;5033516;28;20660;-89
2022/10/13 05:13:28;;;;;;;26.43;9.70;;;8.30;89.80;;;;;;5033043;28;20525;-89
2022/10/13 05:15:54;;;;;;;14.47;9.67;;;8.30;89.80;;;;;;5032136;28;20177;-90
2022/10/13 05:18:20;;;;;;;17.23;9.97;;;8.30;89.70;;;;;;5032084;28;20188;-90
2022/10/13 05:20:46;;;;;;;17.27;9.77;;;8.20;89.70;;;;;;5032068;28;20181;-90
2022/10/13 05:23:12;;;;;;;16.87;9.77;;;8.20;89.80;;;;;;5032029;28;20198;-90
2022/10/13 05:25:38;;;;;;;28.67;14.57;;;8.30;90.00;;;;;;5033249;28;20173;-90
2022/10/13 05:28:05;;;;;;;18.43;11.70;;;8.30;89.90;;;;;;5031910;28;20214;-90
2022/10/13 05:30:31;;;;;;;21.17;10.93;;;8.30;89.80;;;;;;5032697;28;20168;-90
2022/10/13 05:32:57;;;;;;;23.87;9.77;;;8.30;89.90;;;;;;5033528;28;20169;-90
2022/10/13 05:35:23;;;;;;;17.90;9.50;;;8.30;89.90;;;;;;5033030;28;20270;-90
2022/10/13 05:37:48;;;;;;;20.23;10.10;;;8.20;89.90;;;;;;5031839;28;20187;-90
2022/10/13 05:40:14;;;;;;;45.00;20.97;;;8.20;89.90;;;;;;5032250;28;20627;-90
2022/10/13 05:42:40;;;;;;;21.50;11.57;;;8.30;90.00;;;;;;5032214;28;20255;-90
2022/10/13 05:45:11;;;;;;;28.33;13.37;;;8.30;89.90;;;;;;5032232;28;20200;-90
2022/10/13 05:47:36;;;;;;;19.03;11.07;;;8.30;89.80;;;;;;5031788;28;20545;-90
2022/10/13 05:50:02;;;;;;;19.00;10.77;;;8.30;89.80;;;;;;5031719;28;20191;-91
2022/10/13 05:52:32;;;;;;;22.50;10.47;;;8.30;89.80;;;;;;5031698;28;20176;-90
2022/10/13 05:55:01;;;;;;;22.37;10.57;;;8.30;89.80;;;;;;5031706;28;20188;-89
2022/10/13 05:57:35;;;;;;;26.83;10.73;;;8.30;89.90;;;;;;5031815;28;20196;-90
2022/10/13 06:00:06;;;;;;;25.37;11.13;;;8.30;89.80;;;;;;5032363;28;20156;-90
2022/10/13 06:02:50;;;;;;;19.67;10.30;;;8.30;89.90;;;;;;5031963;28;20172;-90
2022/10/13 06:05:18;;;;;;;18.03;10.67;;;8.30;89.90;;;;;;5031866;28;20200;-85
2022/10/13 06:07:45;;;;;;;18.80;11.43;;;8.20;90.00;;;;;;5031698;28;20204;-88
2022/10/13 06:10:11;;;;;;;18.47;10.70;;;8.20;90.10;;;;;;5031726;28;20177;-87
2022/10/13 06:12:37;;;;;;;25.77;12.70;;;8.30;90.20;;;;;;5031606;28;20685;-89
2022/10/13 06:15:04;;;;;;;20.77;11.87;;;8.30;90.30;;;;;;5032605;28;20196;-91
2022/10/13 06:17:30;;;;;;;24.07;12.03;;;8.30;90.40;;;;;;5032527;28;20299;-90
2022/10/13 06:19:55;;;;;;;23.90;12.63;;;8.30;90.50;;;;;;5031791;28;20187;-90
2022/10/13 06:22:21;;;;;;;26.13;11.77;;;8.30;90.60;;;;;;5031635;28;20187;-90
2022/10/13 06:24:47;;;;;;;23.90;12.83;;;8.30;90.60;;;;;;5031505;28;20687;-90
2022/10/13 06:27:13;;;;;;;25.33;13.03;;;8.50;90.60;;;;;;5031802;28;20205;-90
2022/10/13 06:29:38;;;;;;;20.87;12.80;;;8.50;90.60;;;;;;5031527;28;20192;-90
2022/10/13 06:32:05;;;;;;;23.50;12.23;;;8.50;90.50;;;;;;5031481;28;20180;-90
2022/10/13 06:34:31;;;;;;;21.73;13.27;;;8.50;90.50;;;;;;5031272;28;20216;-90
2022/10/13 06:36:57;;;;;;;22.63;12.03;;;8.60;90.40;;;;;;5031354;28;20268;-90
2022/10/13 06:39:22;;;;;;;21.77;11.77;;;8.60;90.40;;;;;;5031761;28;20197;-90
2022/10/13 06:41:48;;;;;;;21.50;11.83;;;8.60;90.40;;;;;;5031742;28;20179;-90
2022/10/13 06:44:14;;;;;;;27.07;12.57;;;8.70;90.40;;;;;;5034812;28;20200;-90
2022/10/13 06:46:39;;;;;;;27.90;13.30;;;8.70;90.40;;;;;;5034691;28;20212;-90
2022/10/13 06:49:05;;;;;;;24.33;13.17;;;8.70;90.50;;;;;;5036018;28;20551;-90
2022/10/13 06:51:31;;;;;;;22.37;13.87;;;8.80;90.50;;;;;;5035893;28;20169;-90
2022/10/13 06:53:56;;;;;;;21.83;13.77;;;8.80;90.70;;;;;;5034690;28;20193;-90
2022/10/13 06:56:22;;;;;;;27.17;14.57;;;8.80;90.60;;;;;;5035846;28;20168;-90
2022/10/13 06:58:48;;;;;;;25.77;13.13;;;8.80;90.70;;;;;;5034881;28;20682;-90
2022/10/13 07:01:14;;;;;;;27.90;15.30;;;8.90;90.70;;;;;;5035697;28;20252;-90
2022/10/13 07:03:39;;;;;;;25.47;13.67;;;8.90;90.60;;;;;;5034896;28;20294;-90
2022/10/13 07:06:06;;;;;;;30.80;14.07;;;8.90;90.70;;;;;;5034457;28;20177;-90
2022/10/13 07:08:32;;;;;;;21.23;13.37;;;9.00;90.60;;;;;;5034408;28;20208;-90
2022/10/13 07:10:58;;;;;;;26.70;14.53;;;9.00;90.60;;;;;;5034603;28;20176;-89
2022/10/13 07:13:24;;;;;;;28.50;14.57;;;9.10;90.50;;;;;;5034263;28;20230;-90
2022/10/13 07:15:50;;;;;;;25.17;14.10;;;9.10;90.50;;;;;;5035490;28;20172;-91
2022/10/13 07:18:15;;;;;;;24.27;14.50;;;9.20;90.60;;;;;;5035480;28;20649;-90
2022/10/13 07:20:41;;;;;;;19.47;13.63;;;9.20;90.60;;;;;;5034183;28;20180;-90
2022/10/13 07:23:07;;;;;;;27.73;16.33;;;9.20;90.60;;;;;;5034154;28;20169;-90
2022/10/13 07:25:32;;;;;;;30.83;15.83;;;9.30;90.60;;;;;;5034033;28;20702;-90
2022/10/13 07:27:59;;;;;;;23.87;14.97;;;9.30;90.60;;;;;;5034393;28;20201;-91
2022/10/13 07:30:25;;;;;;;38.80;17.77;;;9.30;90.70;;;;;;5034207;28;20227;-89
2022/10/13 07:32:51;;;;;;;36.17;19.70;;;9.40;90.70;;;;;;5034076;28;20179;-90
2022/10/13 07:35:16;;;;;;;26.83;16.13;;;9.40;90.60;;;;;;5034161;28;20212;-89
2022/10/13 07:37:42;;;;;;;32.60;16.87;;;9.50;90.60;;;;;;5034749;28;20183;-89
2022/10/13 07:40:08;;;;;;;112.60;43.17;;;9.50;90.60;;;;;;5035082;28;20176;-89
2022/10/13 07:42:33;;;;;;;73.03;30.83;;;9.50;90.60;;;;;;5033781;28;20172;-89
2022/10/13 07:44:59;;;;;;;30.23;16.93;;;9.60;90.60;;;;;;5033687;28;20697;-91
2022/10/13 07:47:25;;;;;;;24.57;16.77;;;9.60;90.50;;;;;;5033686;28;20670;-90
2022/10/13 07:49:50;;;;;;;28.07;16.27;;;9.70;90.50;;;;;;5034887;28;20169;-91
2022/10/13 07:52:17;;;;;;;31.47;16.73;;;9.70;90.60;;;;;;5033568;28;20168;-90
2022/10/13 07:54:42;;;;;;;27.23;16.63;;;9.80;90.60;;;;;;5033280;28;20250;-91
2022/10/13 07:57:08;;;;;;;33.33;17.97;;;9.80;90.60;;;;;;5033545;28;20204;-91
2022/10/13 07:59:34;;;;;;;27.00;17.53;;;9.80;90.60;;;;;;5033824;28;20541;-91
2022/10/13 08:02:00;;;;;;;27.63;16.93;;;9.90;90.60;;;;;;5033533;28;20191;-91
2022/10/13 08:04:31;;;;;;;24.23;15.13;;;10.00;90.50;;;;;;5033317;28;20585;-90
2022/10/13 08:06:57;;;;;;;33.20;17.20;;;9.90;90.40;;;;;;5033393;28;20247;-89
2022/10/13 08:09:23;;;;;;;28.93;17.03;;;9.90;90.40;;;;;;5033400;28;20177;-90
2022/10/13 08:11:48;;;;;;;28.10;17.40;;;9.90;90.30;;;;;;5033619;28;20594;-90
2022/10/13 08:14:14;;;;;;;25.03;16.33;;;10.00;90.40;;;;;;5033389;28;20711;-89
2022/10/13 08:16:43;;;;;;;28.53;16.57;;;10.00;90.30;;;;;;5033240;28;20180;-89
2022/10/13 08:19:08;;;;;;;30.00;18.03;;;10.10;90.40;;;;;;5033529;28;20191;-88
2022/10/13 08:21:34;;;;;;;27.67;17.00;;;10.20;90.50;;;;;;5033141;28;20181;-88
2022/10/13 08:23:59;;;;;;;27.57;18.53;;;10.20;90.50;;;;;;5033291;28;20258;-89
2022/10/13 08:26:28;;;;;;;29.57;17.60;;;10.30;90.40;;;;;;5032910;28;20590;-88
2022/10/13 08:28:53;;;;;;;45.00;22.33;;;10.30;90.40;;;;;;5033020;28;20177;-88
2022/10/13 08:31:19;;;;;;;40.37;25.73;;;10.30;90.30;;;;;;5034619;28;20172;-88
2022/10/13 08:33:50;;;;;;;44.97;27.07;;;10.40;90.20;;;;;;5032910;28;20338;-89
2022/10/13 08:36:16;;;;;;;41.00;22.37;;;10.40;90.20;;;;;;5034462;28;20240;-88
2022/10/13 08:38:42;;;;;;;31.00;19.73;;;10.50;90.10;;;;;;5034033;28;20165;-88
2022/10/13 08:41:16;;;;;;;26.40;18.10;;;10.50;89.90;;;;;;5032717;28;20172;-88
2022/10/13 08:43:47;;;;;;;31.50;19.57;;;10.60;90.00;;;;;;5032776;28;20192;-89
2022/10/13 08:46:19;;;;;;;34.83;18.83;;;10.70;89.90;;;;;;5033545;28;20169;-89
2022/10/13 08:49:05;;;;;;;40.43;18.97;;;10.70;89.90;;;;;;5032752;28;20171;-88
2022/10/13 08:51:30;;;;;;;34.73;18.77;;;10.80;89.80;;;;;;5034019;28;20172;-88
2022/10/13 08:53:57;;;;;;;28.00;18.47;;;10.80;89.70;;;;;;5032460;28;20679;-88
2022/10/13 08:56:33;;;;;;;35.23;19.13;;;11.00;89.80;;;;;;5032434;28;20173;-88
2022/10/13 08:59:00;;;;;;;31.53;18.17;;;11.00;89.50;;;;;;5033719;28;20598;-87
2022/10/13 09:01:35;;;;;;;29.60;19.90;;;10.90;89.20;;;;;;5033461;28;20548;-86
2022/10/13 09:04:25;;;;;;;37.37;20.67;;;11.10;89.40;;;;;;5032797;28;20196;-88
2022/10/13 09:07:02;;;;;;;29.57;20.03;;;11.10;89.30;;;;;;5033215;28;20208;-88
2022/10/13 09:09:27;;;;;;;34.83;21.40;;;11.20;89.20;;;;;;5032309;28;20596;-87
2022/10/13 09:11:53;;;;;;;37.83;21.07;;;11.30;89.10;;;;;;5032225;28;20219;-89
2022/10/13 09:14:35;;;;;;;34.00;20.63;;;11.40;89.20;;;;;;5032167;28;20667;-88
2022/10/13 09:17:15;;;;;;;36.60;20.80;;;11.50;88.90;;;;;;5033644;28;20527;-88
2022/10/13 09:19:41;;;;;;;33.07;21.00;;;11.70;88.90;;;;;;5032229;28;20180;-88
2022/10/13 09:22:29;;;;;;;36.50;23.33;;;11.80;89.00;;;;;;5033344;28;20182;-88
2022/10/13 09:25:17;;;;;;;36.83;21.77;;;11.90;89.00;;;;;;5032048;28;20266;-89
2022/10/13 09:27:44;;;;;;;33.57;21.63;;;12.00;88.10;;;;;;5032031;28;20214;-89
2022/10/13 09:30:38;;;;;;;32.87;23.23;;;12.00;87.50;;;;;;5032805;28;20183;-89
2022/10/13 09:33:06;;;;;;;39.03;22.83;;;12.00;87.00;;;;;;5032169;28;20177;-89
2022/10/13 09:35:33;;;;;;;39.97;22.20;;;12.00;87.30;;;;;;5031860;28;20239;-89
2022/10/13 09:38:21;;;;;;;32.50;21.73;;;12.10;87.10;;;;;;5033026;28;20307;-90
2022/10/13 09:41:04;;;;;;;37.77;22.50;;;12.20;87.10;;;;;;5032073;28;20177;-89
2022/10/13 09:43:42;;;;;;;32.63;21.70;;;12.10;86.60;;;;;;5031929;28;20200;-88
2022/10/13 09:46:24;;;;;;;32.97;20.97;;;12.20;87.00;;;;;;5033332;28;20167;-87
2022/10/13 09:48:53;;;;;;;38.13;21.43;;;12.20;86.90;;;;;;5032340;28;20188;-87
2022/10/13 09:51:45;;;;;;;40.17;22.73;;;12.30;87.20;;;;;;5033542;28;20173;-87
2022/10/13 09:57:44;;;;;;;33.23;21.53;;;12.40;87.00;;;;;;5024222;28;20187;-87
2022/10/13 10:00:25;;;;;;;37.90;21.83;;;12.40;86.60;;;;;;5032069;28;20678;-86
2022/10/13 10:03:00;;;;;;;37.97;21.40;;;12.40;86.30;;;;;;5032101;28;20173;-88
2022/10/13 10:05:38;;;;;;;33.57;21.90;;;12.30;86.00;;;;;;5032077;28;20230;-87
2022/10/13 10:08:32;;;;;;;36.27;21.87;;;12.40;86.30;;;;;;5031845;28;20203;-90
2022/10/13 10:11:02;;;;;;;35.33;22.03;;;12.50;86.40;;;;;;5031855;28;20214;-89
2022/10/13 10:13:27;;;;;;;33.03;22.27;;;12.60;86.10;;;;;;5033310;28;20250;-90
2022/10/13 10:16:19;;;;;;;32.40;21.53;;;12.70;86.20;;;;;;5032448;28;20647;-89
2022/10/13 10:18:51;;;;;;;30.50;20.97;;;12.70;85.80;;;;;;5035707;28;20173;-92
2022/10/13 10:21:45;;;;;;;34.17;19.87;;;12.60;85.40;;;;;;5035797;28;20180;-91
2022/10/13 10:24:37;;;;;;;36.23;22.93;;;12.70;85.40;;;;;;5036905;28;20671;-90
2022/10/13 10:27:08;;;;;;;30.93;21.73;;;12.70;85.20;;;;;;5035528;28;20201;-91
2022/10/13 10:29:53;;;;;;;35.37;22.00;;;12.70;85.50;;;;;;5036021;28;20172;-90
2022/10/13 10:32:56;;;;;;;33.63;22.53;;;12.70;85.70;;;;;;5035549;28;20203;-90
2022/10/13 10:35:44;;;;;;;30.27;20.17;;;12.70;85.30;;;;;;5037209;28;20274;-88
2022/10/13 10:38:30;;;;;;;32.20;20.90;;;12.80;85.20;;;;;;5036180;28;20579;-88
2022/10/13 10:41:02;;;;;;;32.93;21.20;;;12.80;85.60;;;;;;5036038;28;20173;-90
2022/10/13 10:43:48;;;;;;;30.07;19.73;;;12.90;86.00;;;;;;5036333;28;20680;-89
2022/10/13 10:46:27;;;;;;;33.23;20.33;;;12.80;85.50;;;;;;5035159;28;20177;-88
2022/10/13 10:48:59;;;;;;;31.30;20.63;;;12.90;85.70;;;;;;5035145;28;20177;-89
2022/10/13 10:51:31;;;;;;;30.00;19.47;;;12.90;85.40;;;;;;5036324;28;20161;-89
2022/10/13 10:54:07;;;;;;;34.03;20.23;;;12.90;85.30;;;;;;5034935;28;20279;-89
2022/10/13 10:57:05;;;;;;;35.00;20.47;;;12.90;85.20;;;;;;5036253;28;20218;-89
2022/10/13 11:00:00;;;;;;;33.27;20.63;;;13.00;85.60;;;;;;5034172;28;20184;-88
2022/10/13 11:02:44;;;;;;;32.77;20.60;;;13.00;85.40;;;;;;5034475;28;20263;-89
2022/10/13 11:05:11;;;;;;;28.13;19.53;;;13.20;85.80;;;;;;5034635;28;20203;-89
2022/10/13 11:07:43;;;;;;;28.23;19.13;;;13.10;85.00;;;;;;5034426;28;20208;-90
2022/10/13 11:10:17;;;;;;;33.47;19.33;;;13.10;85.20;;;;;;5034611;28;20543;-89
2022/10/13 11:12:52;;;;;;;30.40;20.90;;;13.30;85.10;;;;;;5034504;28;20642;-91
2022/10/13 11:15:23;;;;;;;33.63;19.63;;;13.30;84.70;;;;;;5035010;28;20290;-91
2022/10/13 11:17:49;;;;;;;32.07;20.43;;;13.50;84.70;;;;;;5034912;28;20177;-91
2022/10/13 11:20:18;;;;;;;31.37;20.33;;;13.70;84.60;;;;;;5034764;28;20188;-91
2022/10/13 11:22:59;;;;;;;33.90;19.67;;;13.80;84.00;;;;;;5034918;28;20196;-91
2022/10/13 11:25:39;;;;;;;31.17;20.03;;;13.70;83.70;;;;;;5034812;28;20855;-91
2022/10/13 11:28:25;;;;;;;34.67;20.37;;;13.80;84.00;;;;;;5033963;28;20211;-91
2022/10/13 11:30:54;;;;;;;30.83;18.80;;;13.60;83.70;;;;;;5035120;28;20264;-92
2022/10/13 11:33:38;;;;;;;28.67;19.30;;;13.50;84.20;;;;;;5034559;28;20173;-90
2022/10/13 11:36:41;;;;;;;28.90;20.10;;;13.60;84.10;;;;;;5034604;28;20634;-91
2022/10/13 11:39:28;;;;;;;32.47;19.10;;;13.70;84.20;;;;;;5034513;28;20181;-91
2022/10/13 11:42:12;;;;;;;34.37;20.57;;;13.80;84.20;;;;;;5034482;28;20226;-91
2022/10/13 11:44:50;;;;;;;32.47;19.60;;;13.80;84.40;;;;;;5035080;28;20673;-91
2022/10/13 11:47:34;;;;;;;32.00;20.87;;;13.80;84.30;;;;;;5034408;28;20299;-91
2022/10/13 11:50:15;;;;;;;31.87;20.87;;;13.80;84.30;;;;;;5034388;28;20287;-91
2022/10/13 11:53:15;;;;;;;38.70;20.57;;;13.80;84.60;;;;;;5034646;28;20172;-91
2022/10/13 11:55:53;;;;;;;35.40;21.10;;;13.90;84.50;;;;;;5034486;28;20173;-91
2022/10/13 11:58:21;;;;;;;36.90;21.07;;;13.90;84.40;;;;;;5034385;28;20184;-91
2022/10/13 12:00:57;;;;;;;35.17;21.30;;;13.90;84.60;;;;;;5034554;28;20227;-91
2022/10/13 12:03:26;;;;;;;31.70;21.37;;;13.90;84.50;;;;;;5034330;28;20176;-91
2022/10/13 12:05:54;;;;;;;41.67;23.23;;;14.00;84.60;;;;;;5034295;28;20177;-89
2022/10/13 12:08:20;;;;;;;42.83;23.27;;;14.00;84.70;;;;;;5034204;28;20196;-92
2022/10/13 12:10:55;;;;;;;34.40;22.27;;;14.10;84.70;;;;;;5034249;28;20259;-91
2022/10/13 12:13:27;;;;;;;31.67;22.07;;;14.20;84.60;;;;;;5034434;28;20623;-91
2022/10/13 12:16:05;;;;;;;33.03;23.07;;;14.20;84.50;;;;;;5034236;28;20268;-91
2022/10/13 12:18:39;;;;;;;36.30;22.47;;;14.30;84.70;;;;;;5034155;28;20172;-91
2022/10/13 12:21:21;;;;;;;35.90;22.47;;;14.30;84.50;;;;;;5035093;28;20387;-89
2022/10/13 12:23:48;;;;;;;38.60;23.77;;;14.30;84.20;;;;;;5034938;28;20196;-90
2022/10/13 12:26:19;;;;;;;31.00;21.23;;;14.30;84.00;;;;;;5035210;28;20183;-92
2022/10/13 12:28:53;;;;;;;44.07;22.37;;;14.30;84.10;;;;;;5037574;28;20220;-90
2022/10/13 12:31:24;;;;;;;38.35;20.00;;;14.30;84.20;;;;;;5035520;28;20180;-89
2022/10/13 12:34:00;;;;;;;49.67;23.50;;;14.30;84.40;;;;;;5033447;28;20208;-88
2022/10/13 12:36:29;;;;;;;37.47;21.97;;;14.30;85.20;;;;;;5034149;28;20515;-89
2022/10/13 12:38:59;;;;;;;35.40;22.83;;;14.20;86.00;;;;;;5034346;28;20216;-89
2022/10/13 12:41:29;;;;;;;39.93;23.83;;;14.20;86.80;;;;;;5032995;28;20184;-88
2022/10/13 12:43:55;;;;;;;31.40;22.77;;;14.10;87.40;;;;;;5033053;28;20196;-88
2022/10/13 12:46:41;;;;;;;39.97;23.50;;;13.90;87.80;;;;;;5032806;28;20168;-89
2022/10/13 12:49:34;;;;;;;43.73;24.63;;;13.90;88.30;;;;;;5033062;28;20172;-89
2022/10/13 12:52:13;;;;;;;45.53;26.00;;;13.80;88.80;;;;;;5030741;28;20188;-88
2022/10/13 12:55:00;;;;;;;36.13;25.30;;;13.80;89.20;;;;;;5032695;28;20204;-88
2022/10/13 12:57:34;;;;;;;36.57;26.47;;;13.80;89.30;;;;;;5033000;28;20315;-88
2022/10/13 13:00:00;;;;;;;43.50;26.10;;;13.90;89.30;;;;;;5032898;28;20176;-88